F/V Renaissance II — FMEW — position and weather

sailwx.info

Track history (hours):
 
Tides and Currents Weather Stations Pressure Air Temp Water Temp Dewpoint Dewpoint Depression Visibility Wind Speed Wind Dir Waves Ship Positions

F/V Renaissance II

Last reported at 2017-Mar-22 18:34 UTC. Time now 2017-Mar-23 02:21 UTC.
Position N 46°27' W 001°50'.

Length 18 m.

Type: Fishing. MMSI: 228216600.

Date/timePositionNaut miles runAvg speedWind from/ knotsBaromVisibWave heightAir tempDewpointWater temp
2017-Mar-22 18:34N 46°27' W 001°50'9 8.9
2017-Mar-22 17:33N 46°20' W 001°60'2 0.2
2017-Mar-22 06:10N 46°18' W 002°02'5 8.8
2017-Mar-22 05:34N 46°22' W 001°56'9 8.5
2017-Mar-22 04:33N 46°28' W 001°48'2 1.6
2017-Mar-22 03:34N 46°30' W 001°47'0 0.0
2017-Mar-22 02:33N 46°30' W 001°47'0 0.0
2017-Mar-22 01:33N 46°30' W 001°47'0 0.0
2017-Mar-22 00:34N 46°30' W 001°47'0 0.0
2017-Mar-21 23:33N 46°30' W 001°47'0 0.0
2017-Mar-21 22:33N 46°30' W 001°47'0 0.0
2017-Mar-21 21:33N 46°30' W 001°47'0 0.2
2017-Mar-21 20:34N 46°30' W 001°47'6 5.6
2017-Mar-21 19:33N 46°25' W 001°52'95 3.7
2017-Mar-20 18:08N 44°51' W 001°31'4 5.3
2017-Mar-20 17:25N 44°47' W 001°32'5 4.4
2017-Mar-20 16:22N 44°43' W 001°34'3 4.1
2017-Mar-20 15:33N 44°40' W 001°34'6 6.1
2017-Mar-20 14:33N 44°33' W 001°34'2 2.2
2017-Mar-20 13:33N 44°31' W 001°34'8 0.9
2017-Mar-20 05:08N 44°25' W 001°40'6 9.7
2017-Mar-20 04:31N 44°31' W 001°40'9 9.7
2017-Mar-20 03:33N 44°40' W 001°41'118 4.3
2017-Mar-19 00:16N 46°31' W 002°40'5 5.8
2017-Mar-18 23:26N 46°35' W 002°43'18 6.1
2017-Mar-18 20:25N 46°51' W 002°57'6 6.4
2017-Mar-18 19:33N 46°55' W 003°02'6 6.3
2017-Mar-18 18:33N 47°01' W 003°07'5 5.5
2017-Mar-18 17:33N 47°05' W 003°11'2 1.9
2017-Mar-18 16:32N 47°05' W 003°13'2 2.1
2017-Mar-18 15:32N 47°05' W 003°10'2 1.9
2017-Mar-18 14:32N 47°03' W 003°09'1 0.6
2017-Mar-18 13:34N 47°03' W 003°09'0 0.3
2017-Mar-18 12:34N 47°03' W 003°08'1 0.7
2017-Mar-18 11:33N 47°03' W 003°09'2 1.6
2017-Mar-18 10:33N 47°02' W 003°09'7 7.1
2017-Mar-18 09:33N 46°55' W 003°11'1 1.0
2017-Mar-18 08:29N 46°56' W 003°11'2 2.1
2017-Mar-18 07:33N 46°54' W 003°11'2 1.9
2017-Mar-18 06:23N 46°55' W 003°08'61 5.5
2017-Mar-17 19:16N 46°30' W 001°48'0 0.0
2017-Mar-17 18:33N 46°30' W 001°48'0 0.0
2017-Mar-17 17:33N 46°30' W 001°48'0 0.0
2017-Mar-17 16:33N 46°30' W 001°48'0 0.0
2017-Mar-17 15:34N 46°30' W 001°48'0 0.0
2017-Mar-17 14:34N 46°30' W 001°48'0 0.0
2017-Mar-17 13:33N 46°30' W 001°48'0 0.0
2017-Mar-17 12:34N 46°30' W 001°48'0 0.0
2017-Mar-17 11:33N 46°30' W 001°48'0 0.0
2017-Mar-17 10:33N 46°30' W 001°48'0 0.0
2017-Mar-17 09:33N 46°30' W 001°48'0 0.0
2017-Mar-17 08:34N 46°30' W 001°48'0 0.1
2017-Mar-17 07:34N 46°30' W 001°47'0 0.0
2017-Mar-17 06:33N 46°30' W 001°47'0 0.1
2017-Mar-17 05:34N 46°30' W 001°48'0 0.0
2017-Mar-17 04:33N 46°30' W 001°48'0 0.0
2017-Mar-17 03:33N 46°30' W 001°48'0 0.0
2017-Mar-17 02:33N 46°30' W 001°48'0 0.0
2017-Mar-17 01:33N 46°30' W 001°48'0 0.0
2017-Mar-17 00:34N 46°30' W 001°48'0 0.0
2017-Mar-16 23:33N 46°30' W 001°48'0 0.0
2017-Mar-16 22:34N 46°30' W 001°48'0 0.0
2017-Mar-16 21:34N 46°30' W 001°48'0 0.2
2017-Mar-16 20:33N 46°30' W 001°47'0 0.2
2017-Mar-16 19:34N 46°30' W 001°47'9 8.7
2017-Mar-16 18:33N 46°24' W 001°57'10 9.6
2017-Mar-16 17:33N 46°19' W 002°09'13 1.5
2017-Mar-16 08:22N 46°08' W 002°20'13 4.6
2017-Mar-16 05:32N 46°17' W 002°06'9 9.5
2017-Mar-16 04:34N 46°23' W 001°56'9 8.7
2017-Mar-16 03:33N 46°30' W 001°48'2 0.2
2017-Mar-15 19:04N 46°28' W 001°49'5 9.7
2017-Mar-15 18:33N 46°29' W 001°56'10 9.9
2017-Mar-15 17:33N 46°31' W 002°10'1210.0
2017-Mar-15 16:20N 46°33' W 002°28'10 9.4
2017-Mar-15 15:18N 46°35' W 002°42'2 2.7
2017-Mar-15 14:29N 46°36' W 002°40'3 1.0
2017-Mar-15 11:22N 46°34' W 002°37'29 3.2
2017-Mar-15 02:27N 46°07' W 002°50'6 3.3
2017-Mar-15 00:33N 46°13' W 002°53'13 1.1
2017-Mar-14 12:32N 46°23' W 002°41'3 2.8
2017-Mar-14 11:29N 46°24' W 002°37'9 4.3
2017-Mar-14 09:23N 46°16' W 002°30'0 0.5
2017-Mar-14 08:18N 46°16' W 002°30'8 2.8
2017-Mar-14 05:33N 46°19' W 002°20'10 9.7
2017-Mar-14 04:33N 46°23' W 002°07'9 9.5
2017-Mar-14 03:33N 46°26' W 001°54'6 5.9
2017-Mar-14 02:33N 46°30' W 001°48'1 0.8
2017-Mar-14 01:33N 46°29' W 001°47'8 8.4
2017-Mar-14 00:33N 46°27' W 001°59'  
Track history (hours):
 
Tides and Currents Weather Stations Pressure Air Temp Water Temp Dewpoint Dewpoint Depression Visibility Wind Speed Wind Dir Waves Ship Positions

F/V Renaissance II

Last reported at 2017-Mar-22 18:34 UTC. Time now 2017-Mar-23 02:21 UTC.
Position N 46°27' W 001°50'.

Length 18 m.

Type: Fishing. MMSI: 228216600.

Date/timePositionNaut miles runAvg speedWind from/ knotsBaromVisibWave heightAir tempDewpointWater temp
2017-Mar-22 18:34N 46°27' W 001°50'9 8.9
2017-Mar-22 17:33N 46°20' W 001°60'2 0.2
2017-Mar-22 06:10N 46°18' W 002°02'5 8.8
2017-Mar-22 05:34N 46°22' W 001°56'9 8.5
2017-Mar-22 04:33N 46°28' W 001°48'2 1.6
2017-Mar-22 03:34N 46°30' W 001°47'0 0.0
2017-Mar-22 02:33N 46°30' W 001°47'0 0.0
2017-Mar-22 01:33N 46°30' W 001°47'0 0.0
2017-Mar-22 00:34N 46°30' W 001°47'0 0.0
2017-Mar-21 23:33N 46°30' W 001°47'0 0.0
2017-Mar-21 22:33N 46°30' W 001°47'0 0.0
2017-Mar-21 21:33N 46°30' W 001°47'0 0.2
2017-Mar-21 20:34N 46°30' W 001°47'6 5.6
2017-Mar-21 19:33N 46°25' W 001°52'95 3.7
2017-Mar-20 18:08N 44°51' W 001°31'4 5.3
2017-Mar-20 17:25N 44°47' W 001°32'5 4.4
2017-Mar-20 16:22N 44°43' W 001°34'3 4.1
2017-Mar-20 15:33N 44°40' W 001°34'6 6.1
2017-Mar-20 14:33N 44°33' W 001°34'2 2.2
2017-Mar-20 13:33N 44°31' W 001°34'8 0.9
2017-Mar-20 05:08N 44°25' W 001°40'6 9.7
2017-Mar-20 04:31N 44°31' W 001°40'9 9.7
2017-Mar-20 03:33N 44°40' W 001°41'118 4.3
2017-Mar-19 00:16N 46°31' W 002°40'5 5.8
2017-Mar-18 23:26N 46°35' W 002°43'18 6.1
2017-Mar-18 20:25N 46°51' W 002°57'6 6.4
2017-Mar-18 19:33N 46°55' W 003°02'6 6.3
2017-Mar-18 18:33N 47°01' W 003°07'5 5.5
2017-Mar-18 17:33N 47°05' W 003°11'2 1.9
2017-Mar-18 16:32N 47°05' W 003°13'2 2.1
2017-Mar-18 15:32N 47°05' W 003°10'2 1.9
2017-Mar-18 14:32N 47°03' W 003°09'1 0.6
2017-Mar-18 13:34N 47°03' W 003°09'0 0.3
2017-Mar-18 12:34N 47°03' W 003°08'1 0.7
2017-Mar-18 11:33N 47°03' W 003°09'2 1.6
2017-Mar-18 10:33N 47°02' W 003°09'7 7.1
2017-Mar-18 09:33N 46°55' W 003°11'1 1.0
2017-Mar-18 08:29N 46°56' W 003°11'2 2.1
2017-Mar-18 07:33N 46°54' W 003°11'2 1.9
2017-Mar-18 06:23N 46°55' W 003°08'61 5.5
2017-Mar-17 19:16N 46°30' W 001°48'0 0.0
2017-Mar-17 18:33N 46°30' W 001°48'0 0.0
2017-Mar-17 17:33N 46°30' W 001°48'0 0.0
2017-Mar-17 16:33N 46°30' W 001°48'0 0.0
2017-Mar-17 15:34N 46°30' W 001°48'0 0.0
2017-Mar-17 14:34N 46°30' W 001°48'0 0.0
2017-Mar-17 13:33N 46°30' W 001°48'0 0.0
2017-Mar-17 12:34N 46°30' W 001°48'0 0.0
2017-Mar-17 11:33N 46°30' W 001°48'0 0.0
2017-Mar-17 10:33N 46°30' W 001°48'0 0.0
2017-Mar-17 09:33N 46°30' W 001°48'0 0.0
2017-Mar-17 08:34N 46°30' W 001°48'0 0.1
2017-Mar-17 07:34N 46°30' W 001°47'0 0.0
2017-Mar-17 06:33N 46°30' W 001°47'0 0.1
2017-Mar-17 05:34N 46°30' W 001°48'0 0.0
2017-Mar-17 04:33N 46°30' W 001°48'0 0.0
2017-Mar-17 03:33N 46°30' W 001°48'0 0.0
2017-Mar-17 02:33N 46°30' W 001°48'0 0.0
2017-Mar-17 01:33N 46°30' W 001°48'0 0.0
2017-Mar-17 00:34N 46°30' W 001°48'0 0.0
2017-Mar-16 23:33N 46°30' W 001°48'0 0.0
2017-Mar-16 22:34N 46°30' W 001°48'0 0.0
2017-Mar-16 21:34N 46°30' W 001°48'0 0.2
2017-Mar-16 20:33N 46°30' W 001°47'0 0.2
2017-Mar-16 19:34N 46°30' W 001°47'9 8.7
2017-Mar-16 18:33N 46°24' W 001°57'10 9.6
2017-Mar-16 17:33N 46°19' W 002°09'13 1.5
2017-Mar-16 08:22N 46°08' W 002°20'13 4.6
2017-Mar-16 05:32N 46°17' W 002°06'9 9.5
2017-Mar-16 04:34N 46°23' W 001°56'9 8.7
2017-Mar-16 03:33N 46°30' W 001°48'2 0.2
2017-Mar-15 19:04N 46°28' W 001°49'5 9.7
2017-Mar-15 18:33N 46°29' W 001°56'10 9.9
2017-Mar-15 17:33N 46°31' W 002°10'1210.0
2017-Mar-15 16:20N 46°33' W 002°28'10 9.4
2017-Mar-15 15:18N 46°35' W 002°42'2 2.7
2017-Mar-15 14:29N 46°36' W 002°40'3 1.0
2017-Mar-15 11:22N 46°34' W 002°37'29 3.2
2017-Mar-15 02:27N 46°07' W 002°50'6 3.3
2017-Mar-15 00:33N 46°13' W 002°53'13 1.1
2017-Mar-14 12:32N 46°23' W 002°41'3 2.8
2017-Mar-14 11:29N 46°24' W 002°37'9 4.3
2017-Mar-14 09:23N 46°16' W 002°30'0 0.5
2017-Mar-14 08:18N 46°16' W 002°30'8 2.8
2017-Mar-14 05:33N 46°19' W 002°20'10 9.7
2017-Mar-14 04:33N 46°23' W 002°07'9 9.5
2017-Mar-14 03:33N 46°26' W 001°54'6 5.9
2017-Mar-14 02:33N 46°30' W 001°48'1 0.8
2017-Mar-14 01:33N 46°29' W 001°47'8 8.4
2017-Mar-14 00:33N 46°27' W 001°59'  

Dump ship's entire track history